Startpagina
METAR-TAF:

METAR-TAF

Vliegvelden :

Luchthaven Helsinki-Vantaa

Helsinki, Finland

breedte: 60-19N, lengte: 024-58E, hoogte: 51 m

Actueel weer

Dit bericht is 27 minuten geleden gemaakt, om 11:50 UTC
Wind 12 kt uit het oostzuidoosten
Temperatuur 1°C
Vochtigheid 80%
Druk 1029 hPa
Zicht 10 km of meer
Gebroken wolken op 1400 ft

METAR: EFHK 221150Z 12012KT 9999 BKN014 01/M02 Q1029 NOSIG

Tijdstip: 14:17 (12:17 UTC)

Verwachting

Dit bericht is 21 minuten geleden gemaakt, om 11:56 UTC
Verwachting geldig van 22 om 12 UTC tot 23 om 12 UTC
Wind 10 kt uit het zuidoosten
Zicht 10 km of meer
Gebroken wolken op 1400 ft
Tijdelijke
van 22 om 15 UTC tot 22 om 21 UTC
Gebroken wolken op 1500 ft
Wijzigt naar
van 22 om 21 UTC tot 22 om 23 UTC
Verspreide wolken op 1500 ft

TAF: EFHK 221156Z 2212/2312 13010KT 9999 BKN014 TEMPO 2215/2221 BKN015 BECMG 2221/2223 SCT015

Waarnemingen en weersverwachtingen van meer dan 4000 vliegvelden (METAR en TAF).

De beschikbare stations zijn de gele en rode punten op de kaart.

Ga met uw muis naar het station om de naam te zien.

Klik dan om waarnemingen en weersverwachtingen te zien.

kaart wijzigen: klik op de groene knoppen met een zwart kruis om in te zoomen, op de groene knop met een streepje om uit te zoomen of op de groene pijlen voor aangrenzende kaarten.


METAR-TAF: